Time;durP1;ratioP1;P1;durP2;ratioP2;P2;SDS_P1;SDS_P2;PMS_P1;PMS_P2;Temp;Humidity;BMP_temperature;BMP_pressure;BME280_temperature;BME280_humidity;BME280_pressure;Samples;Min_cycle;Max_cycle;Signal;HPM_P1;HPM_P2
2022/09/22 00:01:26;;;;;;;0.80;0.80;;;;;;;;;;4932470;28;20223;-56
2022/09/22 00:03:53;;;;;;;0.93;0.93;;;;;;;;;;4915587;28;20854;-56
2022/09/22 00:06:20;;;;;;;0.80;0.80;;;;;;;;;;4927044;28;20231;-56
2022/09/22 00:08:47;;;;;;;0.93;0.93;;;;;;;;;;4928837;28;20292;-56
2022/09/22 00:11:20;;;;;;;0.70;0.70;;;;;;;;;;4907324;28;20235;-56
2022/09/22 00:13:49;;;;;;;0.90;0.90;;;;;;;;;;4923444;28;20270;-58
2022/09/22 00:16:16;;;;;;;1.00;1.00;;;;;;;;;;4897648;28;20223;-55
2022/09/22 00:18:42;;;;;;;0.90;0.90;;;;;;;;;;4932788;28;20229;-56
2022/09/22 00:21:11;;;;;;;1.17;1.17;;;;;;;;;;4939568;28;20278;-56
2022/09/22 00:23:37;;;;;;;1.00;1.00;;;;;;;;;;4935458;28;20393;-56
2022/09/22 00:26:04;;;;;;;1.20;1.20;;;;;;;;;;4917664;28;20306;-56
2022/09/22 00:28:31;;;;;;;1.23;1.23;;;;;;;;;;4944453;28;20663;-56
2022/09/22 00:30:57;;;;;;;1.40;1.40;;;;;;;;;;4930260;28;20522;-56
2022/09/22 00:33:23;;;;;;;1.27;1.27;;;;;;;;;;4936616;28;20242;-56
2022/09/22 00:35:56;;;;;;;1.40;1.40;;;;;;;;;;4929926;28;20736;-56
2022/09/22 00:38:22;;;;;;;1.10;1.10;;;;;;;;;;4934170;28;22309;-56
2022/09/22 00:40:48;;;;;;;1.10;1.10;;;;;;;;;;4938996;28;20230;-56
2022/09/22 00:43:14;;;;;;;1.17;1.17;;;;;;;;;;4947737;28;20676;-56
2022/09/22 00:45:40;;;;;;;1.10;1.10;;;;;;;;;;4931939;28;20241;-56
2022/09/22 00:48:06;;;;;;;1.20;1.20;;;;;;;;;;4948400;28;20229;-56
2022/09/22 00:50:32;;;;;;;1.10;1.10;;;;;;;;;;4916512;28;20219;-56
2022/09/22 00:53:00;;;;;;;1.00;1.00;;;;;;;;;;4942206;28;20242;-56
2022/09/22 00:55:27;;;;;;;1.10;1.10;;;;;;;;;;4940035;28;20568;-55
2022/09/22 00:57:53;;;;;;;1.50;1.50;;;;;;;;;;4942198;28;20321;-56
2022/09/22 01:00:19;;;;;;;1.20;1.20;;;;;;;;;;4943942;28;20274;-56
2022/09/22 01:02:46;;;;;;;1.20;1.20;;;;;;;;;;4931885;28;20234;-56
2022/09/22 01:05:12;;;;;;;1.30;1.30;;;;;;;;;;4932447;28;20696;-56
2022/09/22 01:07:38;;;;;;;1.40;1.40;;;;;;;;;;4943148;28;20224;-56
2022/09/22 01:10:04;;;;;;;1.20;1.20;;;;;;;;;;4940945;28;20255;-56
2022/09/22 01:12:30;;;;;;;1.33;1.33;;;;;;;;;;4928108;28;20242;-56
2022/09/22 01:15:10;;;;;;;1.20;1.20;;;;;;;;;;4927203;28;20239;-56
2022/09/22 01:17:49;;;;;;;1.30;1.30;;;;;;;;;;4946451;28;20230;-56
2022/09/22 01:20:30;;;;;;;1.50;1.50;;;;;;;;;;4927842;28;20253;-56
2022/09/22 01:23:08;;;;;;;1.50;1.50;;;;;;;;;;4931580;28;22201;-56
2022/09/22 01:25:34;;;;;;;1.30;1.30;;;;;;;;;;4940389;28;20253;-56
2022/09/22 01:28:05;;;;;;;1.33;1.33;;;;;;;;;;4944830;28;20261;-56
2022/09/22 01:30:34;;;;;;;1.40;1.40;;;;;;;;;;4934869;28;20244;-56
2022/09/22 01:33:06;;;;;;;1.20;1.20;;;;;;;;;;4937926;28;20351;-56
2022/09/22 01:35:39;;;;;;;1.30;1.30;;;;;;;;;;4929022;28;20689;-56
2022/09/22 01:38:09;;;;;;;1.00;1.00;;;;;;;;;;4907688;28;20257;-56
2022/09/22 01:40:40;;;;;;;1.30;1.30;;;;;;;;;;4910403;28;20642;-56
2022/09/22 01:43:15;;;;;;;1.60;1.60;;;;;;;;;;4926441;28;20239;-56
2022/09/22 01:45:41;;;;;;;1.30;1.30;;;;;;;;;;4886137;28;20286;-56
2022/09/22 01:48:09;;;;;;;1.30;1.30;;;;;;;;;;4912857;28;20631;-57
2022/09/22 01:50:36;;;;;;;1.20;1.20;;;;;;;;;;4913474;28;20236;-56
2022/09/22 01:53:03;;;;;;;1.00;1.00;;;;;;;;;;4927274;28;20962;-56
2022/09/22 01:55:33;;;;;;;0.90;0.90;;;;;;;;;;4895625;28;20729;-56
2022/09/22 01:58:00;;;;;;;1.03;1.03;;;;;;;;;;4918227;28;20692;-56
2022/09/22 02:00:26;;;;;;;1.10;1.10;;;;;;;;;;4911511;28;20219;-56
2022/09/22 02:02:53;;;;;;;1.00;1.00;;;;;;;;;;4928469;28;20643;-56
2022/09/22 02:05:21;;;;;;;1.10;1.10;;;;;;;;;;4923763;28;20273;-56
2022/09/22 02:07:48;;;;;;;0.80;0.80;;;;;;;;;;4934096;28;20238;-56
2022/09/22 02:10:16;;;;;;;0.80;0.80;;;;;;;;;;4925095;28;20837;-56
2022/09/22 02:12:42;;;;;;;1.07;1.07;;;;;;;;;;4908758;28;20239;-56
2022/09/22 02:17:56;;;;;;;1.10;1.10;;;;;;;;;;4918254;28;20841;-56
2022/09/22 02:20:24;;;;;;;1.10;1.10;;;;;;;;;;4935464;28;20232;-55
2022/09/22 02:22:50;;;;;;;0.90;0.90;;;;;;;;;;4939906;28;20218;-56
2022/09/22 02:25:16;;;;;;;0.80;0.80;;;;;;;;;;4918858;28;20250;-56
2022/09/22 02:27:42;;;;;;;1.00;1.00;;;;;;;;;;4931051;28;21373;-56
2022/09/22 02:30:08;;;;;;;1.00;1.00;;;;;;;;;;4938173;28;20976;-56
2022/09/22 02:32:35;;;;;;;1.00;1.00;;;;;;;;;;4906605;28;20687;-56
2022/09/22 02:35:01;;;;;;;1.00;1.00;;;;;;;;;;4933781;28;20865;-56
2022/09/22 02:37:34;;;;;;;0.90;0.90;;;;;;;;;;4930832;28;20598;-56
2022/09/22 02:40:07;;;;;;;1.10;1.10;;;;;;;;;;4937851;28;20233;-56
2022/09/22 02:42:33;;;;;;;0.80;0.80;;;;;;;;;;4931075;28;20230;-56
2022/09/22 02:45:08;;;;;;;0.90;0.90;;;;;;;;;;4943674;28;20848;-56
2022/09/22 02:47:42;;;;;;;0.90;0.90;;;;;;;;;;4934954;28;20229;-56
2022/09/22 02:50:09;;;;;;;0.90;0.90;;;;;;;;;;4920849;28;20546;-57
2022/09/22 02:52:35;;;;;;;1.00;1.00;;;;;;;;;;4922381;28;20227;-56
2022/09/22 02:55:01;;;;;;;1.00;1.00;;;;;;;;;;4939360;28;20305;-56
2022/09/22 02:57:27;;;;;;;0.90;0.90;;;;;;;;;;4924817;28;20338;-56
2022/09/22 02:59:53;;;;;;;1.00;1.00;;;;;;;;;;4931485;28;20231;-56
2022/09/22 03:02:19;;;;;;;0.90;0.90;;;;;;;;;;4920347;28;20366;-56
2022/09/22 03:04:45;;;;;;;1.10;1.10;;;;;;;;;;4936542;28;20227;-55
2022/09/22 03:07:11;;;;;;;1.00;1.00;;;;;;;;;;4923085;28;20226;-56
2022/09/22 03:09:37;;;;;;;0.87;0.87;;;;;;;;;;4934512;28;20221;-56
2022/09/22 03:12:03;;;;;;;0.90;0.90;;;;;;;;;;4931775;28;20289;-56
2022/09/22 03:14:29;;;;;;;0.83;0.83;;;;;;;;;;4921460;28;20257;-56
2022/09/22 03:16:55;;;;;;;0.90;0.90;;;;;;;;;;4920227;28;20224;-56
2022/09/22 03:19:21;;;;;;;1.00;1.00;;;;;;;;;;4937035;28;20610;-56
2022/09/22 03:21:47;;;;;;;0.90;0.90;;;;;;;;;;4937089;28;20234;-56
2022/09/22 03:24:13;;;;;;;0.90;0.90;;;;;;;;;;4931857;28;20727;-56
2022/09/22 03:26:39;;;;;;;1.00;1.00;;;;;;;;;;4934068;28;20305;-56
2022/09/22 03:29:05;;;;;;;1.07;1.07;;;;;;;;;;4928526;28;20250;-56
2022/09/22 03:31:31;;;;;;;0.80;0.80;;;;;;;;;;4918655;28;20317;-56
2022/09/22 03:33:56;;;;;;;0.80;0.80;;;;;;;;;;4937322;28;20235;-56
2022/09/22 03:36:22;;;;;;;1.17;1.17;;;;;;;;;;4944598;28;20242;-56
2022/09/22 03:38:49;;;;;;;1.00;1.00;;;;;;;;;;4933971;28;20219;-56
2022/09/22 03:41:16;;;;;;;1.10;1.10;;;;;;;;;;4928957;28;20224;-57
2022/09/22 03:43:42;;;;;;;1.10;1.10;;;;;;;;;;4939069;28;20230;-56
2022/09/22 03:46:08;;;;;;;0.90;0.90;;;;;;;;;;4921119;28;20338;-56
2022/09/22 03:48:34;;;;;;;0.97;0.97;;;;;;;;;;4938712;28;20231;-56
2022/09/22 03:51:00;;;;;;;1.00;1.00;;;;;;;;;;4918683;28;20285;-56
2022/09/22 03:53:26;;;;;;;0.90;0.90;;;;;;;;;;4921223;28;20267;-55
2022/09/22 03:55:52;;;;;;;1.00;1.00;;;;;;;;;;4924772;28;20231;-56
2022/09/22 03:58:21;;;;;;;0.80;0.80;;;;;;;;;;4923497;28;20317;-56
2022/09/22 04:00:48;;;;;;;0.90;0.90;;;;;;;;;;4930971;28;20245;-56
2022/09/22 04:03:14;;;;;;;1.00;1.00;;;;;;;;;;4947235;28;22081;-56
2022/09/22 04:05:40;;;;;;;0.90;0.90;;;;;;;;;;4949290;28;22166;-56
2022/09/22 04:08:06;;;;;;;1.00;1.00;;;;;;;;;;4950987;28;20250;-56
2022/09/22 04:10:33;;;;;;;0.83;0.83;;;;;;;;;;4946912;28;20234;-56
2022/09/22 04:12:59;;;;;;;1.10;1.10;;;;;;;;;;4950242;28;20242;-56
2022/09/22 04:15:25;;;;;;;1.17;1.17;;;;;;;;;;4937071;28;20222;-56
2022/09/22 04:17:51;;;;;;;1.03;1.03;;;;;;;;;;4932277;28;20230;-56
2022/09/22 04:20:16;;;;;;;0.90;0.90;;;;;;;;;;4915209;28;20445;-56
2022/09/22 04:22:42;;;;;;;1.10;1.10;;;;;;;;;;4912043;28;20238;-56
2022/09/22 04:25:09;;;;;;;0.90;0.90;;;;;;;;;;4922350;28;20222;-56
2022/09/22 04:27:35;;;;;;;0.90;0.90;;;;;;;;;;4926190;28;20222;-56
2022/09/22 04:30:01;;;;;;;0.80;0.80;;;;;;;;;;4924806;28;20510;-56
2022/09/22 04:32:27;;;;;;;0.90;0.90;;;;;;;;;;4935758;28;20495;-56
2022/09/22 04:34:53;;;;;;;1.00;1.00;;;;;;;;;;4930814;28;20274;-56
2022/09/22 04:37:19;;;;;;;0.80;0.80;;;;;;;;;;4921153;28;20974;-56
2022/09/22 04:39:45;;;;;;;0.80;0.80;;;;;;;;;;4942565;28;20257;-56
2022/09/22 04:42:11;;;;;;;0.80;0.80;;;;;;;;;;4942628;28;20225;-56
2022/09/22 04:44:37;;;;;;;0.80;0.80;;;;;;;;;;4929432;28;20295;-56
2022/09/22 04:47:03;;;;;;;1.00;1.00;;;;;;;;;;4937857;28;20225;-56
2022/09/22 04:49:30;;;;;;;0.90;0.90;;;;;;;;;;4935922;28;20254;-56
2022/09/22 04:51:56;;;;;;;0.90;0.90;;;;;;;;;;4935069;28;20227;-56
2022/09/22 04:54:21;;;;;;;0.90;0.90;;;;;;;;;;4910927;28;20538;-56
2022/09/22 04:56:47;;;;;;;0.87;0.87;;;;;;;;;;4933303;28;20231;-55
2022/09/22 04:59:13;;;;;;;1.00;1.00;;;;;;;;;;4925794;28;20226;-55
2022/09/22 05:01:39;;;;;;;1.00;1.00;;;;;;;;;;4934132;28;21842;-55
2022/09/22 05:04:05;;;;;;;1.00;1.00;;;;;;;;;;4937495;28;20226;-54
2022/09/22 05:06:31;;;;;;;1.00;1.00;;;;;;;;;;4928207;28;20226;-54
2022/09/22 05:08:57;;;;;;;0.90;0.90;;;;;;;;;;4921072;28;21938;-54
2022/09/22 05:11:23;;;;;;;0.90;0.90;;;;;;;;;;4912899;28;20791;-54
2022/09/22 05:13:50;;;;;;;1.20;1.20;;;;;;;;;;4930392;28;20930;-55
2022/09/22 05:16:16;;;;;;;1.03;1.03;;;;;;;;;;4919286;28;20694;-59
2022/09/22 05:18:42;;;;;;;0.87;0.87;;;;;;;;;;4915915;28;20231;-58
2022/09/22 05:21:08;;;;;;;1.00;1.00;;;;;;;;;;4926445;28;20250;-55
2022/09/22 05:23:34;;;;;;;0.80;0.80;;;;;;;;;;4941981;28;20231;-55
2022/09/22 05:26:00;;;;;;;0.80;0.80;;;;;;;;;;4935379;28;20232;-56
2022/09/22 05:28:26;;;;;;;0.77;0.77;;;;;;;;;;4913361;28;20213;-55
2022/09/22 05:30:52;;;;;;;0.80;0.80;;;;;;;;;;4933034;28;20302;-55
2022/09/22 05:33:18;;;;;;;0.90;0.90;;;;;;;;;;4934078;28;20238;-55
2022/09/22 05:35:44;;;;;;;0.90;0.90;;;;;;;;;;4927270;28;20470;-55
2022/09/22 05:38:10;;;;;;;1.10;1.10;;;;;;;;;;4945212;28;20235;-55
2022/09/22 05:40:36;;;;;;;0.80;0.80;;;;;;;;;;4933979;28;20228;-55
2022/09/22 05:43:02;;;;;;;0.90;0.90;;;;;;;;;;4937856;28;20807;-55
2022/09/22 05:45:28;;;;;;;0.90;0.90;;;;;;;;;;4943047;28;20689;-55
2022/09/22 05:47:54;;;;;;;0.70;0.70;;;;;;;;;;4925352;28;20230;-55
2022/09/22 05:50:20;;;;;;;0.90;0.90;;;;;;;;;;4939893;28;20227;-54
2022/09/22 05:52:46;;;;;;;0.87;0.87;;;;;;;;;;4906093;28;20818;-55
2022/09/22 05:55:12;;;;;;;0.80;0.80;;;;;;;;;;4932182;28;20220;-55
2022/09/22 05:57:38;;;;;;;0.93;0.93;;;;;;;;;;4936261;28;20289;-55
2022/09/22 06:00:05;;;;;;;0.93;0.93;;;;;;;;;;4942348;28;20228;-55
2022/09/22 06:02:31;;;;;;;0.80;0.80;;;;;;;;;;4935791;28;20222;-55
2022/09/22 06:04:57;;;;;;;1.00;1.00;;;;;;;;;;4944908;28;20246;-55
2022/09/22 06:07:23;;;;;;;1.00;1.00;;;;;;;;;;4934577;28;20250;-55
2022/09/22 06:09:49;;;;;;;0.90;0.90;;;;;;;;;;4936803;28;20627;-55
2022/09/22 06:12:16;;;;;;;0.80;0.80;;;;;;;;;;4927333;28;20258;-54
2022/09/22 06:14:42;;;;;;;0.80;0.80;;;;;;;;;;4948897;28;20283;-55
2022/09/22 06:17:10;;;;;;;0.90;0.90;;;;;;;;;;4933021;28;20234;-55
2022/09/22 06:19:36;;;;;;;0.90;0.90;;;;;;;;;;4933319;28;20605;-55
2022/09/22 06:22:02;;;;;;;0.73;0.73;;;;;;;;;;4936800;28;20235;-55
2022/09/22 06:24:28;;;;;;;0.90;0.90;;;;;;;;;;4942378;28;20226;-55
2022/09/22 06:26:54;;;;;;;0.90;0.90;;;;;;;;;;4934964;28;20236;-55
2022/09/22 06:29:20;;;;;;;0.93;0.93;;;;;;;;;;4938304;28;20701;-55
2022/09/22 06:31:47;;;;;;;0.90;0.90;;;;;;;;;;4936462;28;20220;-55
2022/09/22 06:34:13;;;;;;;0.80;0.80;;;;;;;;;;4928520;28;20235;-55
2022/09/22 06:36:41;;;;;;;0.70;0.70;;;;;;;;;;4924238;28;20807;-55
2022/09/22 06:39:09;;;;;;;0.70;0.70;;;;;;;;;;4936008;28;20528;-55
2022/09/22 06:41:35;;;;;;;0.90;0.90;;;;;;;;;;4926311;28;20242;-55
2022/09/22 06:44:01;;;;;;;0.87;0.87;;;;;;;;;;4929927;28;20345;-55
2022/09/22 06:46:28;;;;;;;0.70;0.70;;;;;;;;;;4928909;28;21504;-55
2022/09/22 06:48:57;;;;;;;0.80;0.80;;;;;;;;;;4929515;28;20227;-55
2022/09/22 06:51:31;;;;;;;0.70;0.70;;;;;;;;;;4933014;28;20697;-55
2022/09/22 06:53:57;;;;;;;0.90;0.90;;;;;;;;;;4938610;28;20268;-55
2022/09/22 06:56:24;;;;;;;0.97;0.97;;;;;;;;;;4929571;28;20305;-55
2022/09/22 06:58:50;;;;;;;0.80;0.80;;;;;;;;;;4935116;28;20237;-55
2022/09/22 07:01:17;;;;;;;0.80;0.80;;;;;;;;;;4940373;28;22139;-55
2022/09/22 07:03:45;;;;;;;0.80;0.80;;;;;;;;;;4907081;28;20231;-55
2022/09/22 07:06:12;;;;;;;0.80;0.80;;;;;;;;;;4936365;28;20236;-55
2022/09/22 07:08:38;;;;;;;0.80;0.80;;;;;;;;;;4941131;28;20289;-55
2022/09/22 07:11:07;;;;;;;1.00;1.00;;;;;;;;;;4935053;28;20224;-56
2022/09/22 07:13:37;;;;;;;1.10;1.10;;;;;;;;;;4935580;28;20329;-55
2022/09/22 07:16:06;;;;;;;0.70;0.70;;;;;;;;;;4930979;28;20227;-55
2022/09/22 07:18:32;;;;;;;1.20;1.20;;;;;;;;;;4935328;28;20241;-55
2022/09/22 07:21:08;;;;;;;0.90;0.90;;;;;;;;;;4924896;28;20218;-55
2022/09/22 07:23:35;;;;;;;0.90;0.90;;;;;;;;;;4933960;28;20231;-55
2022/09/22 07:26:05;;;;;;;0.80;0.80;;;;;;;;;;4920920;28;20309;-55
2022/09/22 07:28:31;;;;;;;0.67;0.67;;;;;;;;;;4936068;28;20554;-55
2022/09/22 07:31:08;;;;;;;0.90;0.90;;;;;;;;;;4962073;28;20750;-55
2022/09/22 07:33:34;;;;;;;0.83;0.83;;;;;;;;;;4970524;28;20751;-56
2022/09/22 07:36:06;;;;;;;0.70;0.70;;;;;;;;;;4958302;28;20659;-56
2022/09/22 07:38:32;;;;;;;0.70;0.70;;;;;;;;;;4964451;28;20255;-56
2022/09/22 07:41:02;;;;;;;0.77;0.77;;;;;;;;;;4962487;28;20222;-55
2022/09/22 07:43:28;;;;;;;0.63;0.63;;;;;;;;;;4961401;28;20308;-56
2022/09/22 07:45:56;;;;;;;0.80;0.80;;;;;;;;;;4963870;28;20241;-55
2022/09/22 07:48:40;;;;;;;0.87;0.87;;;;;;;;;;4966177;28;20226;-55
2022/09/22 07:51:10;;;;;;;0.90;0.90;;;;;;;;;;4966004;28;20265;-55
2022/09/22 07:53:36;;;;;;;0.90;0.90;;;;;;;;;;4958340;28;20305;-55
2022/09/22 07:56:06;;;;;;;0.90;0.90;;;;;;;;;;4954165;28;20503;-56
2022/09/22 07:58:32;;;;;;;1.00;1.00;;;;;;;;;;4959896;28;20223;-56
2022/09/22 08:00:58;;;;;;;0.93;0.93;;;;;;;;;;4968068;28;20225;-56
2022/09/22 08:03:24;;;;;;;0.70;0.70;;;;;;;;;;4966377;28;20231;-56
2022/09/22 08:05:52;;;;;;;0.90;0.90;;;;;;;;;;4952495;28;20273;-56
2022/09/22 08:08:18;;;;;;;0.90;0.90;;;;;;;;;;4960927;28;20230;-56
2022/09/22 08:10:44;;;;;;;1.07;1.07;;;;;;;;;;4966241;28;20237;-56
2022/09/22 08:13:10;;;;;;;0.80;0.80;;;;;;;;;;4968799;28;20235;-56
2022/09/22 08:15:38;;;;;;;0.73;0.73;;;;;;;;;;4951285;28;20230;-56
2022/09/22 08:18:05;;;;;;;0.80;0.80;;;;;;;;;;4958302;28;20234;-56
2022/09/22 08:20:32;;;;;;;0.73;0.73;;;;;;;;;;4966843;28;20218;-56
2022/09/22 08:23:01;;;;;;;0.90;0.90;;;;;;;;;;4967670;28;20250;-56
2022/09/22 08:25:28;;;;;;;0.97;0.97;;;;;;;;;;4960116;28;20711;-56
2022/09/22 08:27:54;;;;;;;0.80;0.80;;;;;;;;;;4962559;28;20226;-56
2022/09/22 08:30:20;;;;;;;0.70;0.70;;;;;;;;;;4958226;28;20258;-56
2022/09/22 08:32:46;;;;;;;0.70;0.70;;;;;;;;;;4947394;28;20232;-56
2022/09/22 08:35:12;;;;;;;0.80;0.80;;;;;;;;;;4944020;28;20628;-56
2022/09/22 08:37:40;;;;;;;0.60;0.60;;;;;;;;;;4955901;28;20282;-56
2022/09/22 08:40:06;;;;;;;0.80;0.80;;;;;;;;;;4945401;28;20227;-56
2022/09/22 08:42:32;;;;;;;0.77;0.77;;;;;;;;;;4939556;28;20234;-56
2022/09/22 08:45:02;;;;;;;0.60;0.60;;;;;;;;;;4932075;28;20594;-56
2022/09/22 08:53:22;;;;;;;0.80;0.80;;;;;;;;;;4908616;28;20286;-56
2022/09/22 08:55:49;;;;;;;0.60;0.60;;;;;;;;;;4929329;28;20238;-55
2022/09/22 08:58:36;;;;;;;1.10;1.10;;;;;;;;;;4932241;28;20948;-60
2022/09/22 09:01:23;;;;;;;0.90;0.90;;;;;;;;;;4937614;28;20337;-61
2022/09/22 09:03:53;;;;;;;1.00;1.00;;;;;;;;;;4924782;28;20289;-60
2022/09/22 09:06:19;;;;;;;0.80;0.80;;;;;;;;;;4925479;28;21306;-61
2022/09/22 09:09:07;;;;;;;1.00;1.00;;;;;;;;;;4940626;28;20879;-60
2022/09/22 09:11:39;;;;;;;1.00;1.00;;;;;;;;;;4936419;28;20254;-61
2022/09/22 09:14:24;;;;;;;0.90;0.90;;;;;;;;;;4935843;28;20313;-60
2022/09/22 09:16:58;;;;;;;0.97;0.97;;;;;;;;;;4945294;28;20319;-61
2022/09/22 09:19:37;;;;;;;0.85;0.85;;;;;;;;;;4933134;28;20228;-59
2022/09/22 09:22:09;;;;;;;0.70;0.70;;;;;;;;;;4927273;28;20250;-60
2022/09/22 09:24:36;;;;;;;0.80;0.80;;;;;;;;;;4929010;28;20226;-59
2022/09/22 09:27:10;;;;;;;0.80;0.80;;;;;;;;;;4937351;28;20222;-62
2022/09/22 09:29:40;;;;;;;0.80;0.80;;;;;;;;;;4924256;28;20243;-59
2022/09/22 09:32:06;;;;;;;0.70;0.70;;;;;;;;;;4934478;28;20732;-61
2022/09/22 09:34:32;;;;;;;0.80;0.80;;;;;;;;;;4935614;28;20292;-59
2022/09/22 09:37:01;;;;;;;0.70;0.70;;;;;;;;;;4930248;28;20712;-60
2022/09/22 09:39:29;;;;;;;1.30;1.30;;;;;;;;;;4905938;28;20237;-61
2022/09/22 09:41:55;;;;;;;1.30;1.30;;;;;;;;;;4933161;28;20231;-62
2022/09/22 09:44:27;;;;;;;1.30;1.30;;;;;;;;;;4934296;28;20210;-61
2022/09/22 09:46:59;;;;;;;0.70;0.70;;;;;;;;;;4906871;28;20255;-61
2022/09/22 09:49:25;;;;;;;0.70;0.70;;;;;;;;;;4914369;28;21272;-60
2022/09/22 09:51:52;;;;;;;0.70;0.70;;;;;;;;;;4922681;28;20217;-61
2022/09/22 09:54:18;;;;;;;0.70;0.70;;;;;;;;;;4883108;28;20418;-60
2022/09/22 09:57:19;;;;;;;1.10;1.10;;;;;;;;;;4923733;28;22417;-60
2022/09/22 10:02:38;;;;;;;0.60;0.60;;;;;;;;;;4902203;28;20326;-61
2022/09/22 10:05:18;;;;;;;1.00;1.00;;;;;;;;;;4872233;28;20285;-62
2022/09/22 10:07:57;;;;;;;0.60;0.60;;;;;;;;;;4919636;28;20285;-59
2022/09/22 10:10:28;;;;;;;0.75;0.75;;;;;;;;;;4925633;28;20219;-58
2022/09/22 10:13:00;;;;;;;0.90;0.90;;;;;;;;;;4919400;28;20301;-58
2022/09/22 10:15:26;;;;;;;1.10;1.10;;;;;;;;;;4911030;28;20229;-56
2022/09/22 10:17:52;;;;;;;0.80;0.80;;;;;;;;;;4926235;28;20514;-59
2022/09/22 10:20:25;;;;;;;0.70;0.70;;;;;;;;;;4894010;28;20274;-59
2022/09/22 10:22:55;;;;;;;0.70;0.70;;;;;;;;;;4926348;28;20234;-58
2022/09/22 10:25:24;;;;;;;0.70;0.70;;;;;;;;;;4925188;28;20229;-59
2022/09/22 10:28:16;;;;;;;0.60;0.60;;;;;;;;;;4914217;28;21183;-58
2022/09/22 10:30:44;;;;;;;0.60;0.60;;;;;;;;;;4948451;28;20234;-58
2022/09/22 10:33:16;;;;;;;0.60;0.60;;;;;;;;;;4957524;28;20676;-59
2022/09/22 10:35:46;;;;;;;0.50;0.50;;;;;;;;;;4930943;28;20269;-58
2022/09/22 10:38:17;;;;;;;0.60;0.60;;;;;;;;;;4939376;28;20909;-59
2022/09/22 10:40:44;;;;;;;0.60;0.60;;;;;;;;;;4947076;28;21036;-59
2022/09/22 10:43:25;;;;;;;0.60;0.60;;;;;;;;;;4956478;28;20626;-57
2022/09/22 10:46:02;;;;;;;0.60;0.60;;;;;;;;;;4955107;28;20237;-59
2022/09/22 10:48:31;;;;;;;0.60;0.60;;;;;;;;;;4950045;28;20261;-59
2022/09/22 10:51:16;;;;;;;0.60;0.60;;;;;;;;;;4951371;28;20348;-59
2022/09/22 10:53:44;;;;;;;0.55;0.55;;;;;;;;;;4949184;28;20887;-59
2022/09/22 10:56:10;;;;;;;0.60;0.60;;;;;;;;;;4953458;28;20344;-59
2022/09/22 10:58:36;;;;;;;0.60;0.60;;;;;;;;;;4949143;28;20786;-59
2022/09/22 11:01:25;;;;;;;0.60;0.60;;;;;;;;;;4946110;28;20223;-59
2022/09/22 11:04:13;;;;;;;0.60;0.60;;;;;;;;;;4901905;28;20703;-60
2022/09/22 11:12:32;;;;;;;0.60;0.60;;;;;;;;;;4942087;28;21135;-59
2022/09/22 11:15:10;;;;;;;0.70;0.70;;;;;;;;;;4958728;28;20236;-60
2022/09/22 11:17:43;;;;;;;0.60;0.60;;;;;;;;;;4949459;28;20233;-59
2022/09/22 11:20:09;;;;;;;0.60;0.60;;;;;;;;;;4917802;28;20232;-60
2022/09/22 11:22:50;;;;;;;0.60;0.60;;;;;;;;;;4964529;28;20248;-58
2022/09/22 11:25:25;;;;;;;0.65;0.65;;;;;;;;;;4948879;28;20226;-59
2022/09/22 11:27:50;;;;;;;0.65;0.65;;;;;;;;;;4952512;28;20230;-58
2022/09/22 11:30:20;;;;;;;0.68;0.68;;;;;;;;;;4952017;28;20557;-60
2022/09/22 11:33:06;;;;;;;0.70;0.70;;;;;;;;;;4963492;28;20303;-60
2022/09/22 11:35:38;;;;;;;0.70;0.70;;;;;;;;;;4956424;28;20710;-59
2022/09/22 11:38:08;;;;;;;0.63;0.63;;;;;;;;;;4952574;28;20227;-59
2022/09/22 11:40:52;;;;;;;0.60;0.60;;;;;;;;;;4955545;28;20226;-59
2022/09/22 11:43:28;;;;;;;0.70;0.70;;;;;;;;;;4954858;28;20644;-59
2022/09/22 11:46:00;;;;;;;0.65;0.65;;;;;;;;;;4955115;28;20254;-59
2022/09/22 11:48:32;;;;;;;0.60;0.60;;;;;;;;;;4952106;28;21184;-58
2022/09/22 11:51:04;;;;;;;0.60;0.60;;;;;;;;;;4962168;28;20623;-58
2022/09/22 11:53:37;;;;;;;0.60;0.60;;;;;;;;;;4957428;28;20235;-57
2022/09/22 11:56:12;;;;;;;0.60;0.60;;;;;;;;;;4914800;28;20669;-59
2022/09/22 11:58:41;;;;;;;0.63;0.63;;;;;;;;;;4937532;28;20221;-58
2022/09/22 12:01:08;;;;;;;0.60;0.60;;;;;;;;;;4965797;28;20345;-59
2022/09/22 12:03:42;;;;;;;0.60;0.60;;;;;;;;;;4922892;28;20226;-58
2022/09/22 12:06:10;;;;;;;0.60;0.60;;;;;;;;;;4956534;28;20234;-59
2022/09/22 12:08:37;;;;;;;0.60;0.60;;;;;;;;;;4944350;28;20227;-58
2022/09/22 12:11:04;;;;;;;0.60;0.60;;;;;;;;;;4965145;28;20282;-58
2022/09/22 12:13:30;;;;;;;0.60;0.60;;;;;;;;;;4950918;28;20237;-60
2022/09/22 12:15:57;;;;;;;0.60;0.60;;;;;;;;;;4946403;28;20427;-59
2022/09/22 12:18:34;;;;;;;0.60;0.60;;;;;;;;;;4944912;28;20690;-59
2022/09/22 12:21:05;;;;;;;0.60;0.60;;;;;;;;;;4917275;28;20316;-59
2022/09/22 12:23:41;;;;;;;0.60;0.60;;;;;;;;;;4934903;28;20740;-57
2022/09/22 12:26:08;;;;;;;0.60;0.60;;;;;;;;;;4950879;28;20234;-57
2022/09/22 12:28:37;;;;;;;0.63;0.63;;;;;;;;;;4929253;28;21142;-57
2022/09/22 12:31:11;;;;;;;0.70;0.70;;;;;;;;;;4949385;28;20236;-58
2022/09/22 12:33:37;;;;;;;0.63;0.63;;;;;;;;;;4944961;28;20238;-57
2022/09/22 12:36:03;;;;;;;0.70;0.70;;;;;;;;;;4967807;28;20222;-57
2022/09/22 12:38:30;;;;;;;0.73;0.73;;;;;;;;;;4965257;28;20301;-57
2022/09/22 12:40:58;;;;;;;0.80;0.80;;;;;;;;;;4940157;28;20225;-57
2022/09/22 12:43:24;;;;;;;0.80;0.80;;;;;;;;;;4932106;28;20226;-57
2022/09/22 12:45:50;;;;;;;0.70;0.70;;;;;;;;;;4966299;28;20226;-57
2022/09/22 12:48:17;;;;;;;0.80;0.80;;;;;;;;;;4970175;28;20230;-57
2022/09/22 12:50:44;;;;;;;0.80;0.80;;;;;;;;;;4961471;28;20278;-57
2022/09/22 12:53:11;;;;;;;1.20;1.20;;;;;;;;;;4932464;28;21620;-57
2022/09/22 12:55:37;;;;;;;1.30;1.30;;;;;;;;;;4951651;28;20350;-57
2022/09/22 12:58:23;;;;;;;1.23;1.23;;;;;;;;;;4966697;28;20233;-57
2022/09/22 13:00:51;;;;;;;1.25;1.25;;;;;;;;;;4940260;28;20241;-57
2022/09/22 13:03:26;;;;;;;1.30;1.30;;;;;;;;;;4963136;28;20317;-56
2022/09/22 13:05:55;;;;;;;1.30;1.30;;;;;;;;;;4956812;28;20333;-57
2022/09/22 13:08:25;;;;;;;1.20;1.20;;;;;;;;;;4952273;28;20226;-57
2022/09/22 13:10:54;;;;;;;1.30;1.30;;;;;;;;;;4954719;28;20230;-57
2022/09/22 13:13:39;;;;;;;1.38;1.38;;;;;;;;;;4958134;28;20336;-57
2022/09/22 13:16:14;;;;;;;1.30;1.30;;;;;;;;;;4950051;28;20350;-57
2022/09/22 13:18:44;;;;;;;1.20;1.20;;;;;;;;;;4943975;28;20229;-56
2022/09/22 13:21:13;;;;;;;1.20;1.20;;;;;;;;;;4955102;28;20225;-57
2022/09/22 13:23:54;;;;;;;1.30;1.30;;;;;;;;;;4954351;28;20736;-57
2022/09/22 13:26:20;;;;;;;1.30;1.30;;;;;;;;;;4947879;28;20364;-57
2022/09/22 13:29:09;;;;;;;1.30;1.30;;;;;;;;;;4956143;28;20227;-57
2022/09/22 13:31:38;;;;;;;1.27;1.27;;;;;;;;;;4947721;28;20262;-57
2022/09/22 13:34:20;;;;;;;1.30;1.30;;;;;;;;;;4949594;28;20237;-58
2022/09/22 13:36:46;;;;;;;1.30;1.30;;;;;;;;;;4955507;28;20232;-57
2022/09/22 13:39:13;;;;;;;1.40;1.40;;;;;;;;;;4943134;28;20218;-57
2022/09/22 13:41:39;;;;;;;1.60;1.60;;;;;;;;;;4957349;28;20345;-57
2022/09/22 13:44:09;;;;;;;1.50;1.50;;;;;;;;;;4955135;28;20608;-56
2022/09/22 13:46:36;;;;;;;1.45;1.45;;;;;;;;;;4962295;28;20231;-57
2022/09/22 13:49:03;;;;;;;1.40;1.40;;;;;;;;;;4936564;28;20227;-56
2022/09/22 13:51:29;;;;;;;1.20;1.20;;;;;;;;;;4940006;28;21232;-57
2022/09/22 13:53:55;;;;;;;1.20;1.20;;;;;;;;;;4959579;28;20237;-56
2022/09/22 13:56:22;;;;;;;1.45;1.45;;;;;;;;;;4948730;28;20225;-57
2022/09/22 13:58:48;;;;;;;1.35;1.35;;;;;;;;;;4956647;28;20782;-57
2022/09/22 14:01:15;;;;;;;1.40;1.40;;;;;;;;;;4937267;28;20297;-57
2022/09/22 14:03:41;;;;;;;1.40;1.40;;;;;;;;;;4948611;28;20356;-57
2022/09/22 14:06:09;;;;;;;1.30;1.30;;;;;;;;;;4958032;28;20229;-57
2022/09/22 14:08:35;;;;;;;1.30;1.30;;;;;;;;;;4952292;28;20862;-57
2022/09/22 14:11:01;;;;;;;1.30;1.30;;;;;;;;;;4949927;28;20250;-57
2022/09/22 14:13:43;;;;;;;1.27;1.27;;;;;;;;;;4944396;28;20246;-57
2022/09/22 14:16:30;;;;;;;1.10;1.10;;;;;;;;;;4962524;28;20222;-56
2022/09/22 14:18:58;;;;;;;1.25;1.25;;;;;;;;;;4943162;28;20320;-57
2022/09/22 14:21:24;;;;;;;1.25;1.25;;;;;;;;;;4949931;28;20611;-57
2022/09/22 14:23:50;;;;;;;1.20;1.20;;;;;;;;;;4946046;28;20221;-57
2022/09/22 14:26:26;;;;;;;1.20;1.20;;;;;;;;;;4958494;28;20289;-56
2022/09/22 14:28:52;;;;;;;1.20;1.20;;;;;;;;;;4958063;28;20241;-56
2022/09/22 14:31:22;;;;;;;1.20;1.20;;;;;;;;;;4942009;28;20245;-57
2022/09/22 14:33:48;;;;;;;1.20;1.20;;;;;;;;;;4949669;28;20333;-57
2022/09/22 14:36:22;;;;;;;1.20;1.20;;;;;;;;;;4947168;28;20222;-56
2022/09/22 14:38:48;;;;;;;1.25;1.25;;;;;;;;;;4958629;28;20640;-57
2022/09/22 14:41:37;;;;;;;1.20;1.20;;;;;;;;;;4949305;28;21724;-56
2022/09/22 14:44:34;;;;;;;1.30;1.30;;;;;;;;;;4946672;28;20301;-56
2022/09/22 14:47:07;;;;;;;1.10;1.10;;;;;;;;;;4947520;28;20225;-56
2022/09/22 14:49:36;;;;;;;1.10;1.10;;;;;;;;;;4947006;28;20226;-55
2022/09/22 14:52:02;;;;;;;1.20;1.20;;;;;;;;;;4937272;28;20272;-57
2022/09/22 14:54:31;;;;;;;1.33;1.33;;;;;;;;;;4952702;28;20278;-57
2022/09/22 14:57:02;;;;;;;1.17;1.17;;;;;;;;;;4936586;28;20819;-57
2022/09/22 15:02:31;;;;;;;1.40;1.40;;;;;;;;;;4923525;28;20255;-56
2022/09/22 15:04:57;;;;;;;1.20;1.20;;;;;;;;;;4933086;28;20784;-56
2022/09/22 15:07:28;;;;;;;1.20;1.20;;;;;;;;;;4949912;28;20222;-56
2022/09/22 15:09:54;;;;;;;1.20;1.20;;;;;;;;;;4953991;28;20280;-56
2022/09/22 15:12:37;;;;;;;1.20;1.20;;;;;;;;;;4949472;28;20226;-56
2022/09/22 15:15:03;;;;;;;1.27;1.27;;;;;;;;;;4956653;28;20645;-56